sensor_id;sensor_type;location;lat;lon;timestamp;pressure;altitude;pressure_sealevel;temperature;humidity
72096;BME280;59968;51.084;16.748;2023-09-07T04:02:31;101092.30;;;14.21;74.85
72096;BME280;59968;51.084;16.748;2023-09-07T04:04:59;101091.81;;;14.19;74.88
72096;BME280;59968;51.084;16.748;2023-09-07T04:07:28;101091.30;;;14.14;74.67
72096;BME280;59968;51.084;16.748;2023-09-07T04:09:56;101094.79;;;14.11;75.37
72096;BME280;59968;51.084;16.748;2023-09-07T04:12:24;101090.36;;;14.09;75.59
72096;BME280;59968;51.084;16.748;2023-09-07T04:14:52;101095.89;;;14.09;75.32
72096;BME280;59968;51.084;16.748;2023-09-07T04:17:20;101098.21;;;14.07;75.15
72096;BME280;59968;51.084;16.748;2023-09-07T04:19:48;101097.57;;;14.07;75.24
72096;BME280;59968;51.084;16.748;2023-09-07T04:22:15;101101.16;;;14.03;75.59
72096;BME280;59968;51.084;16.748;2023-09-07T04:24:49;101101.93;;;13.99;75.73
72096;BME280;59968;51.084;16.748;2023-09-07T04:27:22;101105.04;;;13.94;75.37
72096;BME280;59968;51.084;16.748;2023-09-07T04:29:50;101106.03;;;13.93;75.24
72096;BME280;59968;51.084;16.748;2023-09-07T04:32:17;101107.20;;;13.88;74.99
72096;BME280;59968;51.084;16.748;2023-09-07T04:34:46;101110.38;;;13.82;75.06
72096;BME280;59968;51.084;16.748;2023-09-07T04:37:15;101112.71;;;13.78;75.28
72096;BME280;59968;51.084;16.748;2023-09-07T04:39:42;101113.42;;;13.76;75.27
72096;BME280;59968;51.084;16.748;2023-09-07T04:42:10;101116.29;;;13.74;75.40
72096;BME280;59968;51.084;16.748;2023-09-07T04:44:37;101121.48;;;13.70;75.63
72096;BME280;59968;51.084;16.748;2023-09-07T04:47:05;101123.13;;;13.70;75.70
72096;BME280;59968;51.084;16.748;2023-09-07T04:49:33;101126.02;;;13.70;75.88
72096;BME280;59968;51.084;16.748;2023-09-07T04:52:04;101125.70;;;13.73;75.73
72096;BME280;59968;51.084;16.748;2023-09-07T04:54:35;101128.44;;;13.73;75.79
72096;BME280;59968;51.084;16.748;2023-09-07T04:57:06;101125.56;;;13.75;76.00
72096;BME280;59968;51.084;16.748;2023-09-07T04:59:35;101124.73;;;13.78;76.34
72096;BME280;59968;51.084;16.748;2023-09-07T05:02:03;101123.53;;;13.82;76.85
72096;BME280;59968;51.084;16.748;2023-09-07T05:04:31;101126.99;;;13.90;77.23
72096;BME280;59968;51.084;16.748;2023-09-07T05:06:59;101131.31;;;13.94;77.51
72096;BME280;59968;51.084;16.748;2023-09-07T05:09:30;101126.89;;;14.03;77.85
72096;BME280;59968;51.084;16.748;2023-09-07T05:11:58;101127.52;;;14.13;77.92
72096;BME280;59968;51.084;16.748;2023-09-07T05:14:26;101131.54;;;14.24;78.03
72096;BME280;59968;51.084;16.748;2023-09-07T05:16:56;101129.66;;;14.34;78.24
72096;BME280;59968;51.084;16.748;2023-09-07T05:19:24;101132.45;;;14.45;78.62
72096;BME280;59968;51.084;16.748;2023-09-07T05:21:52;101137.16;;;14.59;78.50
72096;BME280;59968;51.084;16.748;2023-09-07T05:24:22;101137.61;;;14.72;78.65
72096;BME280;59968;51.084;16.748;2023-09-07T05:26:50;101142.36;;;14.86;78.75
72096;BME280;59968;51.084;16.748;2023-09-07T05:29:18;101140.23;;;14.97;78.60
72096;BME280;59968;51.084;16.748;2023-09-07T05:31:47;101143.89;;;15.12;78.66
72096;BME280;59968;51.084;16.748;2023-09-07T05:34:15;101144.34;;;15.22;78.87
72096;BME280;59968;51.084;16.748;2023-09-07T05:36:42;101148.10;;;15.33;78.91
72096;BME280;59968;51.084;16.748;2023-09-07T05:39:10;101149.30;;;15.45;78.85
72096;BME280;59968;51.084;16.748;2023-09-07T05:41:37;101150.98;;;15.58;79.00
72096;BME280;59968;51.084;16.748;2023-09-07T05:44:04;101157.82;;;15.72;78.66
72096;BME280;59968;51.084;16.748;2023-09-07T05:46:32;101155.48;;;15.84;78.63
72096;BME280;59968;51.084;16.748;2023-09-07T05:48:59;101157.80;;;15.99;78.58
72096;BME280;59968;51.084;16.748;2023-09-07T05:51:27;101157.36;;;16.13;78.53
72096;BME280;59968;51.084;16.748;2023-09-07T05:53:55;101158.18;;;16.24;78.50
72096;BME280;59968;51.084;16.748;2023-09-07T05:56:23;101162.23;;;16.35;78.49
72096;BME280;59968;51.084;16.748;2023-09-07T05:58:50;101164.34;;;16.48;78.41
72096;BME280;59968;51.084;16.748;2023-09-07T06:01:17;101164.96;;;16.61;78.23
72096;BME280;59968;51.084;16.748;2023-09-07T06:03:45;101162.55;;;16.75;78.17
72096;BME280;59968;51.084;16.748;2023-09-07T06:06:14;101157.19;;;16.89;77.98
72096;BME280;59968;51.084;16.748;2023-09-07T06:08:41;101155.58;;;17.03;77.83
72096;BME280;59968;51.084;16.748;2023-09-07T06:11:09;101163.14;;;17.19;77.54
72096;BME280;59968;51.084;16.748;2023-09-07T06:13:37;101158.85;;;17.28;77.44
72096;BME280;59968;51.084;16.748;2023-09-07T06:16:05;101159.45;;;17.40;77.18
72096;BME280;59968;51.084;16.748;2023-09-07T06:18:32;101160.02;;;17.52;76.91
72096;BME280;59968;51.084;16.748;2023-09-07T06:21:01;101158.38;;;17.63;76.78
72096;BME280;59968;51.084;16.748;2023-09-07T06:23:29;101160.65;;;17.76;76.83
72096;BME280;59968;51.084;16.748;2023-09-07T06:26:00;101164.21;;;17.89;76.58
72096;BME280;59968;51.084;16.748;2023-09-07T06:28:28;101167.67;;;18.03;76.09
72096;BME280;59968;51.084;16.748;2023-09-07T06:30:57;101166.75;;;18.16;75.77
72096;BME280;59968;51.084;16.748;2023-09-07T06:33:25;101167.17;;;18.30;75.23
72096;BME280;59968;51.084;16.748;2023-09-07T06:35:53;101166.73;;;18.49;74.77
72096;BME280;59968;51.084;16.748;2023-09-07T06:38:20;101171.95;;;18.58;74.83
72096;BME280;59968;51.084;16.748;2023-09-07T06:40:49;101170.95;;;18.69;74.39
72096;BME280;59968;51.084;16.748;2023-09-07T06:43:18;101176.81;;;18.80;74.23
72096;BME280;59968;51.084;16.748;2023-09-07T06:45:46;101175.16;;;18.94;74.24
72096;BME280;59968;51.084;16.748;2023-09-07T06:48:15;101177.97;;;19.07;74.05
72096;BME280;59968;51.084;16.748;2023-09-07T06:50:45;101177.70;;;19.27;73.11
72096;BME280;59968;51.084;16.748;2023-09-07T06:53:14;101180.84;;;19.40;72.61
72096;BME280;59968;51.084;16.748;2023-09-07T06:55:42;101186.73;;;19.55;72.20
72096;BME280;59968;51.084;16.748;2023-09-07T06:58:13;101189.43;;;19.68;71.97
72096;BME280;59968;51.084;16.748;2023-09-07T07:00:41;101193.49;;;19.78;71.81
72096;BME280;59968;51.084;16.748;2023-09-07T07:03:10;101191.55;;;19.83;71.75
72096;BME280;59968;51.084;16.748;2023-09-07T07:05:38;101193.08;;;20.02;71.38
72096;BME280;59968;51.084;16.748;2023-09-07T07:08:06;101196.36;;;20.19;70.81
72096;BME280;59968;51.084;16.748;2023-09-07T07:10:34;101192.45;;;20.34;70.41
72096;BME280;59968;51.084;16.748;2023-09-07T07:13:01;101193.86;;;20.44;70.46
72096;BME280;59968;51.084;16.748;2023-09-07T07:15:30;101195.38;;;20.59;70.18
72096;BME280;59968;51.084;16.748;2023-09-07T07:17:57;101195.73;;;20.74;69.98
72096;BME280;59968;51.084;16.748;2023-09-07T07:20:25;101195.21;;;20.90;69.44
72096;BME280;59968;51.084;16.748;2023-09-07T07:22:52;101196.30;;;21.07;69.19
72096;BME280;59968;51.084;16.748;2023-09-07T07:25:19;101196.54;;;21.20;68.90
72096;BME280;59968;51.084;16.748;2023-09-07T07:27:47;101197.41;;;21.27;68.52
72096;BME280;59968;51.084;16.748;2023-09-07T07:30:14;101197.74;;;21.35;68.41
72096;BME280;59968;51.084;16.748;2023-09-07T07:32:41;101194.09;;;21.46;68.20
72096;BME280;59968;51.084;16.748;2023-09-07T07:35:09;101193.16;;;21.60;67.58
72096;BME280;59968;51.084;16.748;2023-09-07T07:37:37;101192.13;;;21.73;67.56
72096;BME280;59968;51.084;16.748;2023-09-07T07:40:06;101193.64;;;21.87;67.34
72096;BME280;59968;51.084;16.748;2023-09-07T07:42:35;101188.70;;;21.95;66.82
72096;BME280;59968;51.084;16.748;2023-09-07T07:45:06;101191.54;;;22.08;66.20
72096;BME280;59968;51.084;16.748;2023-09-07T07:47:33;101199.39;;;22.26;65.73
72096;BME280;59968;51.084;16.748;2023-09-07T07:50:00;101200.54;;;22.39;64.86
72096;BME280;59968;51.084;16.748;2023-09-07T07:52:28;101189.88;;;22.46;64.66
72096;BME280;59968;51.084;16.748;2023-09-07T07:54:56;101201.70;;;22.67;63.86
72096;BME280;59968;51.084;16.748;2023-09-07T07:57:23;101201.06;;;22.78;63.51
72096;BME280;59968;51.084;16.748;2023-09-07T07:59:51;101203.27;;;22.89;63.13
72096;BME280;59968;51.084;16.748;2023-09-07T08:02:18;101203.56;;;23.02;62.93
72096;BME280;59968;51.084;16.748;2023-09-07T08:04:46;101204.16;;;23.14;62.42
72096;BME280;59968;51.084;16.748;2023-09-07T08:07:14;101193.71;;;23.23;61.84
72096;BME280;59968;51.084;16.748;2023-09-07T08:09:42;101200.80;;;23.38;61.42
72096;BME280;59968;51.084;16.748;2023-09-07T08:12:10;101201.87;;;23.50;60.88
72096;BME280;59968;51.084;16.748;2023-09-07T08:14:39;101198.08;;;23.61;60.68
72096;BME280;59968;51.084;16.748;2023-09-07T08:17:06;101202.23;;;23.75;60.09
72096;BME280;59968;51.084;16.748;2023-09-07T08:19:36;101207.46;;;23.87;59.18
72096;BME280;59968;51.084;16.748;2023-09-07T08:22:05;101196.73;;;23.92;58.85
72096;BME280;59968;51.084;16.748;2023-09-07T08:24:33;101207.64;;;24.11;59.12
72096;BME280;59968;51.084;16.748;2023-09-07T08:27:01;101207.18;;;24.22;58.26
72096;BME280;59968;51.084;16.748;2023-09-07T08:29:28;101206.68;;;24.29;57.36
72096;BME280;59968;51.084;16.748;2023-09-07T08:31:58;101206.72;;;24.38;56.95
72096;BME280;59968;51.084;16.748;2023-09-07T08:34:30;101208.64;;;24.50;56.81
72096;BME280;59968;51.084;16.748;2023-09-07T08:36:58;101209.65;;;24.63;56.49
72096;BME280;59968;51.084;16.748;2023-09-07T08:39:26;101204.85;;;24.71;56.35
72096;BME280;59968;51.084;16.748;2023-09-07T08:41:56;101204.75;;;24.83;56.27
72096;BME280;59968;51.084;16.748;2023-09-07T08:44:29;101203.17;;;24.91;55.20
72096;BME280;59968;51.084;16.748;2023-09-07T08:46:59;101203.58;;;24.97;55.23
72096;BME280;59968;51.084;16.748;2023-09-07T08:49:27;101201.88;;;25.04;54.47
72096;BME280;59968;51.084;16.748;2023-09-07T08:51:58;101198.60;;;25.12;54.00
72096;BME280;59968;51.084;16.748;2023-09-07T08:54:26;101200.85;;;25.15;54.03
72096;BME280;59968;51.084;16.748;2023-09-07T08:56:57;101198.99;;;25.24;54.06
72096;BME280;59968;51.084;16.748;2023-09-07T08:59:25;101199.91;;;25.40;54.31
72096;BME280;59968;51.084;16.748;2023-09-07T09:01:56;101192.02;;;25.51;53.31
72096;BME280;59968;51.084;16.748;2023-09-07T09:04:26;101196.11;;;25.60;52.97
72096;BME280;59968;51.084;16.748;2023-09-07T09:06:54;101192.50;;;25.68;52.93
72096;BME280;59968;51.084;16.748;2023-09-07T09:09:25;101189.88;;;25.81;52.11
72096;BME280;59968;51.084;16.748;2023-09-07T09:11:52;101190.50;;;25.92;52.73
72096;BME280;59968;51.084;16.748;2023-09-07T09:14:20;101184.69;;;26.02;51.30
72096;BME280;59968;51.084;16.748;2023-09-07T09:16:53;101180.84;;;26.11;50.64
72096;BME280;59968;51.084;16.748;2023-09-07T09:19:33;101182.55;;;26.14;50.30
72096;BME280;59968;51.084;16.748;2023-09-07T09:22:01;101187.85;;;26.22;50.09
72096;BME280;59968;51.084;16.748;2023-09-07T09:24:34;101182.60;;;26.32;50.08
72096;BME280;59968;51.084;16.748;2023-09-07T09:27:03;101183.05;;;26.37;49.20
72096;BME280;59968;51.084;16.748;2023-09-07T09:29:34;101184.69;;;26.45;48.73
72096;BME280;59968;51.084;16.748;2023-09-07T09:32:06;101178.74;;;26.49;47.90
72096;BME280;59968;51.084;16.748;2023-09-07T09:34:37;101178.94;;;26.54;48.11
72096;BME280;59968;51.084;16.748;2023-09-07T09:37:12;101179.89;;;26.55;46.85
72096;BME280;59968;51.084;16.748;2023-09-07T09:39:41;101182.15;;;26.50;47.18
72096;BME280;59968;51.084;16.748;2023-09-07T09:42:10;101179.45;;;26.48;47.06
72096;BME280;59968;51.084;16.748;2023-09-07T09:44:38;101181.56;;;26.49;47.24
72096;BME280;59968;51.084;16.748;2023-09-07T09:47:08;101181.70;;;26.54;46.94
72096;BME280;59968;51.084;16.748;2023-09-07T09:49:37;101176.38;;;26.54;46.67
72096;BME280;59968;51.084;16.748;2023-09-07T09:52:06;101180.31;;;26.58;46.72
72096;BME280;59968;51.084;16.748;2023-09-07T09:54:35;101174.39;;;26.60;46.12
72096;BME280;59968;51.084;16.748;2023-09-07T09:57:03;101178.84;;;26.63;46.16
72096;BME280;59968;51.084;16.748;2023-09-07T09:59:31;101178.23;;;26.69;46.76
72096;BME280;59968;51.084;16.748;2023-09-07T10:01:58;101179.96;;;26.78;46.77
72096;BME280;59968;51.084;16.748;2023-09-07T10:04:28;101177.39;;;26.82;46.14
72096;BME280;59968;51.084;16.748;2023-09-07T10:06:59;101173.58;;;26.87;46.25
72096;BME280;59968;51.084;16.748;2023-09-07T10:09:38;101172.48;;;26.90;46.30
72096;BME280;59968;51.084;16.748;2023-09-07T10:12:10;101175.27;;;26.99;46.75
72096;BME280;59968;51.084;16.748;2023-09-07T10:14:42;101173.23;;;27.07;46.18
72096;BME280;59968;51.084;16.748;2023-09-07T10:17:21;101174.88;;;27.14;45.86
72096;BME280;59968;51.084;16.748;2023-09-07T10:19:49;101173.08;;;27.21;46.23
72096;BME280;59968;51.084;16.748;2023-09-07T10:22:22;101172.73;;;27.26;45.40
72096;BME280;59968;51.084;16.748;2023-09-07T10:24:57;101169.09;;;27.27;45.14
72096;BME280;59968;51.084;16.748;2023-09-07T10:27:25;101170.12;;;27.31;45.03
72096;BME280;59968;51.084;16.748;2023-09-07T10:29:52;101167.48;;;27.39;45.07
72096;BME280;59968;51.084;16.748;2023-09-07T10:32:23;101166.92;;;27.41;43.91
72096;BME280;59968;51.084;16.748;2023-09-07T10:34:50;101163.05;;;27.40;43.93
72096;BME280;59968;51.084;16.748;2023-09-07T10:37:17;101160.39;;;27.38;43.38
72096;BME280;59968;51.084;16.748;2023-09-07T10:39:45;101157.73;;;27.34;43.75
72096;BME280;59968;51.084;16.748;2023-09-07T10:42:23;101156.35;;;27.34;43.80
72096;BME280;59968;51.084;16.748;2023-09-07T10:44:53;101155.05;;;27.37;43.49
72096;BME280;59968;51.084;16.748;2023-09-07T10:47:21;101151.84;;;27.41;44.02
72096;BME280;59968;51.084;16.748;2023-09-07T10:49:48;101150.71;;;27.48;43.87
72096;BME280;59968;51.084;16.748;2023-09-07T10:52:16;101150.77;;;27.43;43.67
72096;BME280;59968;51.084;16.748;2023-09-07T10:54:44;101140.23;;;27.39;43.62
72096;BME280;59968;51.084;16.748;2023-09-07T10:57:12;101145.42;;;27.45;43.72
72096;BME280;59968;51.084;16.748;2023-09-07T10:59:46;101144.81;;;27.47;43.59
72096;BME280;59968;51.084;16.748;2023-09-07T11:02:15;101143.44;;;27.51;43.08
72096;BME280;59968;51.084;16.748;2023-09-07T11:04:43;101140.05;;;27.60;43.05
72096;BME280;59968;51.084;16.748;2023-09-07T11:07:12;101141.83;;;27.64;43.03
72096;BME280;59968;51.084;16.748;2023-09-07T11:09:41;101141.33;;;27.67;43.11
72096;BME280;59968;51.084;16.748;2023-09-07T11:12:12;101142.23;;;27.70;42.83
72096;BME280;59968;51.084;16.748;2023-09-07T11:14:39;101142.19;;;27.71;43.02
72096;BME280;59968;51.084;16.748;2023-09-07T11:17:07;101139.70;;;27.75;42.66
72096;BME280;59968;51.084;16.748;2023-09-07T11:19:36;101135.50;;;27.78;43.23
72096;BME280;59968;51.084;16.748;2023-09-07T11:22:03;101136.09;;;27.82;42.61
72096;BME280;59968;51.084;16.748;2023-09-07T11:24:32;101134.44;;;27.88;43.10
72096;BME280;59968;51.084;16.748;2023-09-07T11:27:02;101131.34;;;27.93;42.94
72096;BME280;59968;51.084;16.748;2023-09-07T11:29:32;101131.56;;;27.96;42.41
72096;BME280;59968;51.084;16.748;2023-09-07T11:32:10;101127.59;;;28.00;42.87
72096;BME280;59968;51.084;16.748;2023-09-07T11:34:48;101130.19;;;28.02;42.38
72096;BME280;59968;51.084;16.748;2023-09-07T11:37:23;101126.19;;;28.03;41.98
72096;BME280;59968;51.084;16.748;2023-09-07T11:39:51;101123.47;;;28.03;42.24
72096;BME280;59968;51.084;16.748;2023-09-07T11:42:18;101122.80;;;28.06;42.53
72096;BME280;59968;51.084;16.748;2023-09-07T11:44:45;101123.54;;;28.10;42.86
72096;BME280;59968;51.084;16.748;2023-09-07T11:47:13;101120.52;;;28.14;42.34
72096;BME280;59968;51.084;16.748;2023-09-07T11:49:41;101121.48;;;28.16;42.10
72096;BME280;59968;51.084;16.748;2023-09-07T11:52:09;101123.03;;;28.17;41.96
72096;BME280;59968;51.084;16.748;2023-09-07T11:54:36;101122.00;;;28.18;42.33
72096;BME280;59968;51.084;16.748;2023-09-07T11:57:04;101117.38;;;28.21;42.88
72096;BME280;59968;51.084;16.748;2023-09-07T11:59:31;101113.52;;;28.22;42.02
72096;BME280;59968;51.084;16.748;2023-09-07T12:02:14;101111.80;;;28.23;41.36
72096;BME280;59968;51.084;16.748;2023-09-07T12:04:43;101114.93;;;28.23;41.93
72096;BME280;59968;51.084;16.748;2023-09-07T12:07:10;101110.86;;;28.17;42.42
72096;BME280;59968;51.084;16.748;2023-09-07T12:09:38;101108.89;;;28.22;42.69
72096;BME280;59968;51.084;16.748;2023-09-07T12:12:05;101108.11;;;28.29;41.96
72096;BME280;59968;51.084;16.748;2023-09-07T12:14:33;101105.42;;;28.33;42.27
72096;BME280;59968;51.084;16.748;2023-09-07T12:17:00;101106.52;;;28.36;42.69
72096;BME280;59968;51.084;16.748;2023-09-07T12:19:28;101104.20;;;28.41;42.78
72096;BME280;59968;51.084;16.748;2023-09-07T12:21:55;101102.67;;;28.43;41.71
72096;BME280;59968;51.084;16.748;2023-09-07T12:24:23;101098.77;;;28.43;41.25
72096;BME280;59968;51.084;16.748;2023-09-07T12:26:51;101107.27;;;28.44;41.17
72096;BME280;59968;51.084;16.748;2023-09-07T12:29:20;101102.88;;;28.40;41.24
72096;BME280;59968;51.084;16.748;2023-09-07T12:31:48;101100.17;;;28.40;41.65
72096;BME280;59968;51.084;16.748;2023-09-07T12:34:16;101095.55;;;28.41;42.02
72096;BME280;59968;51.084;16.748;2023-09-07T12:36:43;101094.66;;;28.41;42.02
72096;BME280;59968;51.084;16.748;2023-09-07T12:39:11;101095.52;;;28.43;41.80
72096;BME280;59968;51.084;16.748;2023-09-07T12:41:40;101097.27;;;28.48;42.49
72096;BME280;59968;51.084;16.748;2023-09-07T12:44:07;101092.52;;;28.52;42.26
72096;BME280;59968;51.084;16.748;2023-09-07T12:46:37;101091.54;;;28.53;41.39
72096;BME280;59968;51.084;16.748;2023-09-07T12:49:06;101092.57;;;28.56;42.23
72096;BME280;59968;51.084;16.748;2023-09-07T12:51:36;101091.34;;;28.61;42.10
72096;BME280;59968;51.084;16.748;2023-09-07T12:54:04;101080.84;;;28.63;41.67
72096;BME280;59968;51.084;16.748;2023-09-07T12:56:34;101079.66;;;28.68;41.60
72096;BME280;59968;51.084;16.748;2023-09-07T12:59:02;101077.46;;;28.72;41.47
72096;BME280;59968;51.084;16.748;2023-09-07T13:01:31;101074.97;;;28.71;41.56
72096;BME280;59968;51.084;16.748;2023-09-07T13:04:00;101068.73;;;28.70;41.69
72096;BME280;59968;51.084;16.748;2023-09-07T13:06:28;101065.68;;;28.68;41.52
72096;BME280;59968;51.084;16.748;2023-09-07T13:08:55;101062.13;;;28.62;42.21
72096;BME280;59968;51.084;16.748;2023-09-07T13:11:23;101060.04;;;28.73;41.77
72096;BME280;59968;51.084;16.748;2023-09-07T13:13:51;101059.92;;;28.77;41.75
72096;BME280;59968;51.084;16.748;2023-09-07T13:16:20;101055.84;;;28.79;41.86
72096;BME280;59968;51.084;16.748;2023-09-07T13:18:48;101055.20;;;28.81;42.23
72096;BME280;59968;51.084;16.748;2023-09-07T13:21:15;101054.81;;;28.86;42.26
72096;BME280;59968;51.084;16.748;2023-09-07T13:23:42;101059.13;;;28.83;41.82
72096;BME280;59968;51.084;16.748;2023-09-07T13:26:10;101059.55;;;28.76;42.14
72096;BME280;59968;51.084;16.748;2023-09-07T13:28:38;101064.23;;;28.85;41.97
72096;BME280;59968;51.084;16.748;2023-09-07T13:31:05;101055.61;;;28.85;41.97
72096;BME280;59968;51.084;16.748;2023-09-07T13:33:32;101053.30;;;28.88;41.91
72096;BME280;59968;51.084;16.748;2023-09-07T13:36:00;101047.83;;;28.89;41.80
72096;BME280;59968;51.084;16.748;2023-09-07T13:38:28;101050.26;;;28.88;42.10
72096;BME280;59968;51.084;16.748;2023-09-07T13:40:55;101048.93;;;28.87;41.24
72096;BME280;59968;51.084;16.748;2023-09-07T13:43:22;101053.08;;;28.85;41.33
72096;BME280;59968;51.084;16.748;2023-09-07T13:45:49;101049.34;;;28.85;41.35
72096;BME280;59968;51.084;16.748;2023-09-07T13:48:17;101055.23;;;28.86;41.36
72096;BME280;59968;51.084;16.748;2023-09-07T13:50:44;101053.60;;;28.85;41.43
72096;BME280;59968;51.084;16.748;2023-09-07T13:53:11;101050.30;;;28.81;40.17
72096;BME280;59968;51.084;16.748;2023-09-07T13:55:39;101049.69;;;28.76;40.42
72096;BME280;59968;51.084;16.748;2023-09-07T13:58:08;101046.91;;;28.72;40.91
72096;BME280;59968;51.084;16.748;2023-09-07T14:00:35;101045.92;;;28.68;40.64
72096;BME280;59968;51.084;16.748;2023-09-07T14:03:02;101039.05;;;28.64;40.63
72096;BME280;59968;51.084;16.748;2023-09-07T14:05:30;101041.38;;;28.62;40.71
72096;BME280;59968;51.084;16.748;2023-09-07T14:07:57;101042.36;;;28.52;41.13
72096;BME280;59968;51.084;16.748;2023-09-07T14:10:24;101040.17;;;28.47;40.90
72096;BME280;59968;51.084;16.748;2023-09-07T14:12:51;101035.27;;;28.43;40.72
72096;BME280;59968;51.084;16.748;2023-09-07T14:15:18;101035.70;;;28.40;40.23
72096;BME280;59968;51.084;16.748;2023-09-07T14:17:45;101035.48;;;28.41;40.07
72096;BME280;59968;51.084;16.748;2023-09-07T14:20:13;101032.90;;;28.42;39.97
72096;BME280;59968;51.084;16.748;2023-09-07T14:22:40;101037.20;;;28.47;40.11
72096;BME280;59968;51.084;16.748;2023-09-07T14:25:08;101034.30;;;28.47;40.23
72096;BME280;59968;51.084;16.748;2023-09-07T14:27:35;101032.38;;;28.48;40.36
72096;BME280;59968;51.084;16.748;2023-09-07T14:30:03;101028.91;;;28.48;40.40
72096;BME280;59968;51.084;16.748;2023-09-07T14:32:30;101027.64;;;28.47;41.02
72096;BME280;59968;51.084;16.748;2023-09-07T14:34:57;101028.77;;;28.47;41.08
72096;BME280;59968;51.084;16.748;2023-09-07T14:37:25;101027.48;;;28.47;40.79
72096;BME280;59968;51.084;16.748;2023-09-07T14:39:52;101025.19;;;28.47;40.69
72096;BME280;59968;51.084;16.748;2023-09-07T14:42:24;101023.17;;;28.42;39.99
72096;BME280;59968;51.084;16.748;2023-09-07T14:44:52;101022.02;;;28.38;40.10
72096;BME280;59968;51.084;16.748;2023-09-07T14:47:20;101021.30;;;28.33;39.84
72096;BME280;59968;51.084;16.748;2023-09-07T14:49:52;101021.23;;;28.33;40.08
72096;BME280;59968;51.084;16.748;2023-09-07T14:52:20;101025.84;;;28.36;40.34
72096;BME280;59968;51.084;16.748;2023-09-07T14:54:48;101030.36;;;28.40;40.49
72096;BME280;59968;51.084;16.748;2023-09-07T14:57:16;101027.64;;;28.40;40.55
72096;BME280;59968;51.084;16.748;2023-09-07T14:59:45;101024.95;;;28.34;40.48
72096;BME280;59968;51.084;16.748;2023-09-07T15:02:12;101016.86;;;28.36;40.38
72096;BME280;59968;51.084;16.748;2023-09-07T15:04:40;101018.21;;;28.24;40.55
72096;BME280;59968;51.084;16.748;2023-09-07T15:07:09;101013.11;;;28.19;40.16
72096;BME280;59968;51.084;16.748;2023-09-07T15:09:37;101012.27;;;28.15;40.38
72096;BME280;59968;51.084;16.748;2023-09-07T15:12:04;101008.80;;;28.22;40.08
72096;BME280;59968;51.084;16.748;2023-09-07T15:14:32;101005.19;;;28.21;40.17
72096;BME280;59968;51.084;16.748;2023-09-07T15:17:00;101002.52;;;28.17;40.18
72096;BME280;59968;51.084;16.748;2023-09-07T15:19:27;101006.60;;;28.11;40.10
72096;BME280;59968;51.084;16.748;2023-09-07T15:21:56;101001.96;;;28.08;39.99
72096;BME280;59968;51.084;16.748;2023-09-07T15:24:23;101003.39;;;28.00;40.43
72096;BME280;59968;51.084;16.748;2023-09-07T15:26:51;101000.94;;;27.99;40.64
72096;BME280;59968;51.084;16.748;2023-09-07T15:29:18;101004.84;;;27.99;40.85
72096;BME280;59968;51.084;16.748;2023-09-07T15:31:46;100998.67;;;28.03;41.08
72096;BME280;59968;51.084;16.748;2023-09-07T15:34:14;101000.17;;;28.03;41.49
72096;BME280;59968;51.084;16.748;2023-09-07T15:36:41;100990.59;;;27.96;41.17
72096;BME280;59968;51.084;16.748;2023-09-07T15:39:10;100992.27;;;27.97;41.11
72096;BME280;59968;51.084;16.748;2023-09-07T15:41:37;100992.45;;;27.95;41.40
72096;BME280;59968;51.084;16.748;2023-09-07T15:44:05;100989.84;;;27.92;41.41
72096;BME280;59968;51.084;16.748;2023-09-07T15:46:33;100994.29;;;27.89;41.85
72096;BME280;59968;51.084;16.748;2023-09-07T15:49:00;100991.20;;;27.85;42.10
72096;BME280;59968;51.084;16.748;2023-09-07T15:51:27;100989.07;;;27.80;42.08
72096;BME280;59968;51.084;16.748;2023-09-07T15:53:54;100988.58;;;27.78;41.51
72096;BME280;59968;51.084;16.748;2023-09-07T15:56:22;100986.39;;;27.74;41.61
72096;BME280;59968;51.084;16.748;2023-09-07T15:58:49;100983.30;;;27.70;41.64
72096;BME280;59968;51.084;16.748;2023-09-07T16:01:17;100983.55;;;27.67;42.14
72096;BME280;59968;51.084;16.748;2023-09-07T16:03:45;100981.66;;;27.63;42.87
72096;BME280;59968;51.084;16.748;2023-09-07T16:06:13;100983.06;;;27.58;43.08
72096;BME280;59968;51.084;16.748;2023-09-07T16:08:42;100983.54;;;27.54;43.05
72096;BME280;59968;51.084;16.748;2023-09-07T16:11:10;100984.13;;;27.49;43.01
72096;BME280;59968;51.084;16.748;2023-09-07T16:13:38;100984.94;;;27.43;43.14
72096;BME280;59968;51.084;16.748;2023-09-07T16:16:07;100987.39;;;27.38;43.49
72096;BME280;59968;51.084;16.748;2023-09-07T16:18:34;100986.05;;;27.33;43.64
72096;BME280;59968;51.084;16.748;2023-09-07T16:21:02;100984.06;;;27.29;43.74
72096;BME280;59968;51.084;16.748;2023-09-07T16:23:33;100986.45;;;27.25;43.84
72096;BME280;59968;51.084;16.748;2023-09-07T16:26:01;100985.39;;;27.19;43.83
72096;BME280;59968;51.084;16.748;2023-09-07T16:28:28;100984.60;;;27.13;44.28
72096;BME280;59968;51.084;16.748;2023-09-07T16:30:56;100986.27;;;27.08;44.68
72096;BME280;59968;51.084;16.748;2023-09-07T16:33:23;100982.53;;;27.02;44.59
72096;BME280;59968;51.084;16.748;2023-09-07T16:35:51;100980.54;;;26.94;44.87
72096;BME280;59968;51.084;16.748;2023-09-07T16:38:18;100981.77;;;26.79;45.17
72096;BME280;59968;51.084;16.748;2023-09-07T16:40:45;100983.42;;;26.71;45.32
72096;BME280;59968;51.084;16.748;2023-09-07T16:43:13;100985.85;;;26.75;45.53
72096;BME280;59968;51.084;16.748;2023-09-07T16:45:40;100990.52;;;26.71;45.84
72096;BME280;59968;51.084;16.748;2023-09-07T16:48:08;100987.36;;;26.66;46.01